Advent, West Virginia
Current Conditions -  °F | °C
As of 5:54 PM on Friday 31 Oct 2014 (Local Time) from KCRW Reporting Station
Light Rain Light Rain  
Wind Chill: 45°   Ceiling: 2500
Heat Index: 45°   Visibility: 6mi
Dew Point: 41°   Wind: 0mph
Humidity: 86%   Direction: NA
Pressure: 29.86"   Gusts: NA
Location:  38.63°N, 81.57°W
Report Text: KCRW 312154Z 00000KT 6SM -RA BR BKN025 OVC036 07/05 A2986 RMK AO2 SLP116 P0003 T00720050
Loading
Personal Weather Stations






























Interactive Weather Map
Tropical Storm Tracking
New forecast layout! Learn more

10-Day Weather Forecast

Advertisements
Track Severe Weather on mobile